Time;durP1;ratioP1;P1;durP2;ratioP2;P2;SDS_P1;SDS_P2;PMS_P1;PMS_P2;Temp;Humidity;BMP_temperature;BMP_pressure;BME280_temperature;BME280_humidity;BME280_pressure;Samples;Min_cycle;Max_cycle;Signal;HPM_P1;HPM_P2
2021/11/18 00:00:48;;;;;;;13.30;8.90;;;7.00;86.80;;;;;;4912005;29;20501;-43
2021/11/18 00:03:17;;;;;;;14.70;10.17;;;6.90;86.80;;;;;;4895498;29;20552;-42
2021/11/18 00:05:44;;;;;;;16.13;9.87;;;7.00;86.60;;;;;;4909780;29;21011;-42
2021/11/18 00:08:11;;;;;;;11.63;8.80;;;7.00;86.50;;;;;;4893568;29;20524;-42
2021/11/18 00:10:44;;;;;;;18.90;9.30;;;6.90;86.40;;;;;;4909942;29;20615;-43
2021/11/18 00:13:15;;;;;;;13.97;9.57;;;6.90;86.30;;;;;;4909520;29;20461;-42
2021/11/18 00:15:43;;;;;;;19.63;10.47;;;7.00;86.20;;;;;;4911614;29;20468;-42
2021/11/18 00:18:19;;;;;;;14.13;9.10;;;6.90;86.40;;;;;;4891800;29;20930;-42
2021/11/18 00:20:52;;;;;;;12.90;8.93;;;6.90;86.70;;;;;;4905959;29;20474;-42
2021/11/18 00:23:21;;;;;;;13.83;10.17;;;6.80;86.90;;;;;;4909561;29;20472;-43
2021/11/18 00:25:48;;;;;;;15.43;10.30;;;6.80;86.90;;;;;;4908152;29;20492;-43
2021/11/18 00:28:14;;;;;;;15.50;11.03;;;6.80;86.80;;;;;;4907421;29;20888;-42
2021/11/18 00:30:42;;;;;;;17.60;12.43;;;6.80;86.90;;;;;;4909028;29;20472;-42
2021/11/18 00:33:10;;;;;;;16.30;10.80;;;6.70;87.00;;;;;;4904940;29;20957;-42
2021/11/18 00:35:38;;;;;;;15.13;10.90;;;6.70;87.20;;;;;;4910880;29;20469;-42
2021/11/18 00:38:05;;;;;;;14.90;10.23;;;6.70;87.40;;;;;;4876747;29;20462;-42
2021/11/18 00:40:36;;;;;;;16.00;10.73;;;6.70;87.40;;;;;;4902426;29;28045;-42
2021/11/18 00:43:06;;;;;;;13.60;9.70;;;6.70;87.40;;;;;;4904588;29;20460;-42
2021/11/18 00:45:34;;;;;;;18.13;9.87;;;6.80;87.50;;;;;;4905152;29;21086;-42
2021/11/18 00:48:01;;;;;;;15.90;9.73;;;6.70;87.40;;;;;;4902692;29;20553;-42
2021/11/18 00:50:42;;;;;;;12.90;8.10;;;6.80;87.40;;;;;;4887160;29;20469;-42
2021/11/18 00:53:29;;;;;;;14.23;8.03;;;6.80;87.10;;;;;;4905103;29;20453;-42
2021/11/18 00:55:56;;;;;;;13.30;8.60;;;6.80;87.00;;;;;;4906857;29;20583;-42
2021/11/18 00:58:24;;;;;;;14.47;9.67;;;6.70;87.20;;;;;;4909882;29;20862;-42
2021/11/18 01:00:51;;;;;;;12.83;9.00;;;6.70;87.40;;;;;;4910531;29;20472;-42
2021/11/18 01:03:21;;;;;;;16.50;10.03;;;6.70;87.50;;;;;;4912392;29;20558;-42
2021/11/18 01:05:50;;;;;;;15.47;10.37;;;6.70;87.60;;;;;;4907504;29;20491;-42
2021/11/18 01:08:17;;;;;;;15.03;10.00;;;6.70;87.60;;;;;;4909890;29;20465;-41
2021/11/18 01:10:51;;;;;;;16.83;9.70;;;6.70;87.60;;;;;;4909298;29;20464;-42
2021/11/18 01:13:20;;;;;;;14.67;8.87;;;6.60;87.60;;;;;;4912796;29;20546;-42
2021/11/18 01:15:47;;;;;;;14.83;8.97;;;6.70;87.70;;;;;;4906950;29;20477;-42
2021/11/18 01:18:14;;;;;;;13.20;9.60;;;6.70;87.70;;;;;;4892591;29;20468;-42
2021/11/18 01:20:43;;;;;;;15.30;9.73;;;6.70;87.50;;;;;;4910806;29;20478;-42
2021/11/18 01:23:14;;;;;;;13.20;9.70;;;6.70;87.60;;;;;;4893813;29;20475;-42
2021/11/18 01:25:42;;;;;;;16.83;10.83;;;6.70;87.70;;;;;;4908563;29;20477;-43
2021/11/18 01:28:10;;;;;;;12.67;9.77;;;6.60;87.80;;;;;;4910576;29;20488;-42
2021/11/18 01:30:39;;;;;;;14.97;10.83;;;6.60;88.00;;;;;;4911175;29;20472;-43
2021/11/18 01:33:08;;;;;;;19.83;11.33;;;6.70;88.00;;;;;;4909523;29;20468;-43
2021/11/18 01:35:35;;;;;;;15.00;10.87;;;6.70;88.00;;;;;;4908986;29;20909;-43
2021/11/18 01:38:03;;;;;;;16.77;11.17;;;6.70;87.80;;;;;;4894055;29;20491;-43
2021/11/18 01:40:35;;;;;;;13.37;9.40;;;6.70;88.10;;;;;;4913339;29;20457;-43
2021/11/18 01:43:02;;;;;;;14.50;9.60;;;6.70;88.20;;;;;;4906325;29;20460;-43
2021/11/18 01:45:31;;;;;;;15.93;10.23;;;6.70;88.20;;;;;;4909152;29;20471;-43
2021/11/18 01:47:58;;;;;;;16.50;10.33;;;6.70;88.20;;;;;;4895130;29;20506;-43
2021/11/18 01:50:28;;;;;;;13.83;9.67;;;6.70;88.20;;;;;;4912583;29;20487;-43
2021/11/18 01:52:57;;;;;;;14.30;8.43;;;6.70;88.20;;;;;;4907874;29;20761;-43
2021/11/18 01:55:25;;;;;;;15.00;10.33;;;6.70;88.30;;;;;;4910508;29;20855;-43
2021/11/18 01:57:53;;;;;;;16.93;10.70;;;6.80;88.40;;;;;;4909336;29;20465;-43
2021/11/18 02:00:28;;;;;;;16.27;9.87;;;6.70;88.40;;;;;;4909968;29;20468;-43
2021/11/18 02:02:55;;;;;;;13.07;7.40;;;6.70;88.50;;;;;;4905712;29;20460;-42
2021/11/18 02:05:26;;;;;;;12.27;9.30;;;6.70;88.60;;;;;;4904286;29;20912;-42
2021/11/18 02:07:53;;;;;;;15.47;9.53;;;6.70;88.80;;;;;;4904183;29;20493;-42
2021/11/18 02:10:29;;;;;;;15.30;10.53;;;6.70;88.70;;;;;;4903971;29;20966;-42
2021/11/18 02:12:58;;;;;;;15.70;9.13;;;6.70;88.80;;;;;;4902728;29;20988;-42
2021/11/18 02:15:34;;;;;;;12.47;9.03;;;6.70;88.80;;;;;;4909079;29;20524;-43
2021/11/18 02:18:10;;;;;;;18.43;10.57;;;6.80;88.70;;;;;;4895440;29;21024;-43
2021/11/18 02:20:37;;;;;;;12.03;7.80;;;6.70;88.60;;;;;;4893772;29;20689;-43
2021/11/18 02:23:20;;;;;;;17.00;10.40;;;6.80;88.40;;;;;;4912372;29;20468;-42
2021/11/18 02:25:52;;;;;;;15.17;9.80;;;6.80;88.10;;;;;;4895867;29;20841;-43
2021/11/18 02:28:22;;;;;;;14.73;9.00;;;6.80;88.30;;;;;;4893384;29;20457;-43
2021/11/18 02:30:51;;;;;;;14.10;9.33;;;6.70;88.20;;;;;;4894697;29;20471;-42
2021/11/18 02:33:18;;;;;;;14.00;8.60;;;6.70;88.30;;;;;;4902910;29;20471;-42
2021/11/18 02:35:47;;;;;;;17.00;10.87;;;6.70;88.30;;;;;;4889852;29;20469;-43
2021/11/18 02:38:16;;;;;;;18.97;11.67;;;6.70;88.40;;;;;;4908164;29;20473;-43
2021/11/18 02:40:44;;;;;;;14.30;10.43;;;6.70;88.40;;;;;;4905575;29;20538;-42
2021/11/18 02:43:15;;;;;;;18.33;11.40;;;6.70;88.40;;;;;;4905614;29;20461;-42
2021/11/18 02:45:46;;;;;;;18.10;11.03;;;6.70;88.10;;;;;;4908573;29;20496;-42
2021/11/18 02:48:14;;;;;;;13.87;9.70;;;6.70;87.90;;;;;;4903280;29;20496;-42
2021/11/18 02:50:44;;;;;;;17.57;10.10;;;6.70;87.90;;;;;;4888716;29;21007;-42
2021/11/18 02:53:12;;;;;;;16.80;10.50;;;6.70;88.00;;;;;;4906521;29;20461;-43
2021/11/18 02:55:43;;;;;;;13.83;9.03;;;6.70;87.70;;;;;;4901275;29;20583;-42
2021/11/18 02:58:11;;;;;;;12.93;8.63;;;6.70;87.70;;;;;;4905837;29;20471;-42
2021/11/18 03:01:15;;;;;;;15.07;11.43;;;6.70;87.60;;;;;;4907832;29;20469;-43
2021/11/18 03:03:43;;;;;;;14.70;8.67;;;6.60;87.60;;;;;;4908550;29;20550;-43
2021/11/18 03:06:10;;;;;;;13.00;9.50;;;6.60;87.70;;;;;;4907974;29;20901;-43
2021/11/18 03:08:37;;;;;;;12.60;8.80;;;6.60;87.70;;;;;;4906184;29;20957;-42
2021/11/18 03:11:06;;;;;;;11.10;8.07;;;6.60;87.80;;;;;;4904132;29;20579;-43
2021/11/18 03:13:33;;;;;;;13.27;9.80;;;6.60;87.80;;;;;;4889579;29;20471;-43
2021/11/18 03:16:00;;;;;;;14.20;8.63;;;6.60;87.70;;;;;;4890820;29;20473;-43
2021/11/18 03:18:27;;;;;;;14.37;8.40;;;6.60;87.80;;;;;;4905112;29;20497;-43
2021/11/18 03:20:56;;;;;;;15.60;9.50;;;6.50;87.90;;;;;;4891016;29;20453;-43
2021/11/18 03:23:24;;;;;;;11.83;8.70;;;6.50;88.00;;;;;;4909799;29;20485;-42
2021/11/18 03:25:52;;;;;;;13.90;8.30;;;6.50;87.90;;;;;;4895842;29;20459;-44
2021/11/18 03:28:22;;;;;;;14.17;9.13;;;6.50;87.80;;;;;;4913395;29;20459;-41
2021/11/18 03:30:49;;;;;;;12.80;8.37;;;6.50;87.90;;;;;;4910511;29;20492;-41
2021/11/18 03:33:29;;;;;;;15.67;10.00;;;6.50;87.90;;;;;;4907042;29;20878;-41
2021/11/18 03:35:57;;;;;;;17.47;9.30;;;6.50;88.00;;;;;;4889315;29;20510;-41
2021/11/18 03:38:27;;;;;;;14.57;9.43;;;6.50;87.90;;;;;;4890857;29;20465;-41
2021/11/18 03:41:01;;;;;;;18.53;8.80;;;6.50;87.90;;;;;;4889890;29;20499;-42
2021/11/18 03:43:28;;;;;;;14.13;9.30;;;6.50;87.90;;;;;;4904090;29;20460;-42
2021/11/18 03:45:55;;;;;;;13.10;9.13;;;6.50;87.90;;;;;;4885974;29;20879;-42
2021/11/18 03:48:22;;;;;;;11.67;8.03;;;6.50;87.90;;;;;;4901262;29;20485;-42
2021/11/18 03:50:49;;;;;;;13.90;8.53;;;6.50;87.80;;;;;;4906044;29;20463;-42
2021/11/18 03:53:17;;;;;;;14.10;9.00;;;6.40;87.90;;;;;;4875906;29;20974;-42
2021/11/18 03:55:44;;;;;;;16.47;9.60;;;6.40;88.00;;;;;;4901841;29;20567;-41
2021/11/18 03:58:11;;;;;;;11.30;8.53;;;6.40;87.80;;;;;;4885144;29;20845;-42
2021/11/18 04:00:39;;;;;;;12.67;9.33;;;6.40;87.80;;;;;;4886230;29;20472;-41
2021/11/18 04:03:08;;;;;;;11.83;7.47;;;6.40;87.60;;;;;;4906117;29;20461;-41
2021/11/18 04:05:37;;;;;;;15.00;8.63;;;6.40;87.50;;;;;;4901783;29;20527;-41
2021/11/18 04:08:04;;;;;;;13.37;7.50;;;6.40;87.60;;;;;;4903979;29;20511;-41
2021/11/18 04:10:32;;;;;;;14.37;8.57;;;6.40;87.70;;;;;;4904624;29;20465;-41
2021/11/18 04:13:03;;;;;;;15.67;9.13;;;6.40;87.50;;;;;;4905331;29;20471;-41
2021/11/18 04:15:30;;;;;;;13.93;8.53;;;6.30;87.50;;;;;;4902673;29;20551;-41
2021/11/18 04:17:59;;;;;;;13.63;8.97;;;6.30;87.90;;;;;;4888508;29;20484;-41
2021/11/18 04:20:26;;;;;;;12.67;8.43;;;6.30;87.80;;;;;;4901652;29;20472;-41
2021/11/18 04:22:54;;;;;;;14.13;9.70;;;6.30;87.70;;;;;;4905175;29;20807;-42
2021/11/18 04:25:30;;;;;;;15.50;9.50;;;6.30;87.60;;;;;;4902031;29;20985;-41
2021/11/18 04:27:58;;;;;;;13.30;8.17;;;6.30;87.50;;;;;;4886575;29;20484;-42
2021/11/18 04:30:31;;;;;;;14.10;8.67;;;6.30;87.50;;;;;;4903802;29;20699;-41
2021/11/18 04:32:58;;;;;;;12.77;9.30;;;6.30;87.50;;;;;;4886527;29;20462;-41
2021/11/18 04:35:25;;;;;;;12.30;8.97;;;6.20;87.60;;;;;;4887626;29;20465;-41
2021/11/18 04:37:52;;;;;;;14.97;9.53;;;6.20;87.70;;;;;;4888510;29;20469;-41
2021/11/18 04:40:19;;;;;;;14.30;9.40;;;6.20;87.80;;;;;;4889982;29;20476;-41
2021/11/18 04:42:46;;;;;;;16.83;9.27;;;6.20;87.60;;;;;;4902294;29;20468;-41
2021/11/18 04:45:15;;;;;;;14.97;9.40;;;6.10;87.60;;;;;;4905245;29;20841;-41
2021/11/18 04:47:42;;;;;;;18.03;9.83;;;6.10;87.80;;;;;;4905245;29;20502;-41
2021/11/18 04:50:10;;;;;;;18.67;9.53;;;6.10;87.90;;;;;;4889132;29;20465;-41
2021/11/18 04:52:37;;;;;;;10.70;8.10;;;6.10;87.80;;;;;;4882478;29;20476;-42
2021/11/18 04:55:06;;;;;;;11.53;8.23;;;6.00;87.80;;;;;;4902222;29;20556;-41
2021/11/18 04:57:33;;;;;;;12.60;9.00;;;6.10;87.70;;;;;;4888793;29;20468;-41
2021/11/18 05:00:00;;;;;;;11.87;7.30;;;6.10;87.40;;;;;;4908390;29;20475;-42
2021/11/18 05:02:27;;;;;;;15.30;9.13;;;6.00;87.40;;;;;;4902490;29;20461;-42
2021/11/18 05:04:54;;;;;;;12.97;8.90;;;6.00;87.40;;;;;;4904472;29;20497;-41
2021/11/18 05:07:21;;;;;;;13.20;9.13;;;6.00;87.20;;;;;;4906013;29;21023;-42
2021/11/18 05:09:48;;;;;;;16.50;9.90;;;6.00;87.20;;;;;;4887982;29;20472;-42
2021/11/18 05:12:17;;;;;;;14.23;9.87;;;6.00;87.10;;;;;;4886695;29;20491;-41
2021/11/18 05:14:44;;;;;;;14.47;9.10;;;6.00;87.00;;;;;;4904962;29;20552;-41
2021/11/18 05:17:11;;;;;;;12.70;8.47;;;6.00;87.00;;;;;;4904574;29;20473;-42
2021/11/18 05:19:37;;;;;;;12.67;7.90;;;5.90;87.10;;;;;;4890857;29;20477;-41
2021/11/18 05:22:04;;;;;;;13.63;9.40;;;5.90;87.10;;;;;;4903354;29;20580;-41
2021/11/18 05:24:31;;;;;;;13.10;9.07;;;5.90;87.30;;;;;;4887955;29;20469;-41
2021/11/18 05:26:58;;;;;;;12.97;8.83;;;5.80;87.50;;;;;;4903740;29;20971;-41
2021/11/18 05:29:25;;;;;;;13.83;8.30;;;5.80;87.60;;;;;;4905503;29;20461;-41
2021/11/18 05:31:52;;;;;;;11.40;8.77;;;5.80;87.80;;;;;;4884300;29;20477;-41
2021/11/18 05:34:20;;;;;;;15.27;8.63;;;5.80;87.70;;;;;;4901842;29;20840;-40
2021/11/18 05:36:47;;;;;;;15.07;9.20;;;5.80;87.70;;;;;;4901997;29;20471;-42
2021/11/18 05:39:13;;;;;;;13.00;8.47;;;5.80;87.50;;;;;;4901213;29;20627;-41
2021/11/18 05:41:40;;;;;;;12.90;8.80;;;5.80;87.50;;;;;;4906913;29;20987;-41
2021/11/18 05:44:07;;;;;;;14.30;9.73;;;5.80;87.50;;;;;;4891272;29;20472;-41
2021/11/18 05:46:35;;;;;;;14.20;8.80;;;5.80;87.30;;;;;;4907989;29;20465;-42
2021/11/18 05:49:05;;;;;;;12.33;8.43;;;5.80;87.30;;;;;;4886626;29;20452;-41
2021/11/18 05:51:32;;;;;;;14.00;8.57;;;5.80;87.10;;;;;;4907104;29;20471;-42
2021/11/18 05:53:59;;;;;;;13.40;9.00;;;5.80;87.30;;;;;;4908179;29;20496;-41
2021/11/18 05:56:27;;;;;;;10.93;8.27;;;5.70;87.30;;;;;;4906564;29;20488;-41
2021/11/18 05:58:53;;;;;;;13.17;8.67;;;5.70;87.30;;;;;;4886471;29;20876;-41
2021/11/18 06:01:24;;;;;;;15.20;9.70;;;5.70;87.30;;;;;;4907820;29;20464;-41
2021/11/18 06:03:51;;;;;;;13.17;8.47;;;5.70;87.20;;;;;;4890771;29;20472;-41
2021/11/18 06:06:23;;;;;;;15.33;10.27;;;5.70;87.20;;;;;;4891221;29;20460;-42
2021/11/18 06:08:50;;;;;;;12.07;8.77;;;5.70;87.20;;;;;;4905254;29;20499;-41
2021/11/18 06:11:16;;;;;;;12.60;8.23;;;5.70;87.10;;;;;;4906458;29;20464;-41
2021/11/18 06:13:50;;;;;;;12.40;9.20;;;5.70;86.90;;;;;;4904201;29;20528;-41
2021/11/18 06:16:18;;;;;;;14.90;9.17;;;5.70;86.90;;;;;;4906947;29;20504;-42
2021/11/18 06:18:45;;;;;;;14.43;8.50;;;5.70;86.90;;;;;;4908073;29;20571;-41
2021/11/18 06:21:11;;;;;;;14.50;9.40;;;5.70;86.90;;;;;;4904496;29;20461;-42
2021/11/18 06:23:38;;;;;;;15.70;10.20;;;5.70;86.90;;;;;;4904942;29;20495;-41
2021/11/18 06:26:05;;;;;;;19.27;9.63;;;5.60;86.90;;;;;;4908653;29;20465;-42
2021/11/18 06:28:32;;;;;;;12.50;8.53;;;5.60;86.80;;;;;;4909295;29;20503;-42
2021/11/18 06:31:05;;;;;;;11.97;9.13;;;5.60;86.80;;;;;;4902399;29;20464;-41
2021/11/18 06:33:32;;;;;;;13.80;8.10;;;5.50;87.10;;;;;;4887331;29;20477;-41
2021/11/18 06:35:59;;;;;;;14.70;8.97;;;5.50;87.20;;;;;;4903045;29;20532;-41
2021/11/18 06:38:36;;;;;;;13.80;9.20;;;5.50;87.20;;;;;;4888799;29;20464;-41
2021/11/18 06:41:03;;;;;;;12.63;9.87;;;5.50;87.10;;;;;;4902204;29;20468;-41
2021/11/18 06:43:30;;;;;;;17.17;10.30;;;5.50;86.80;;;;;;4904356;29;20469;-42
2021/11/18 06:45:58;;;;;;;16.47;9.43;;;5.50;86.80;;;;;;4884372;29;20885;-42
2021/11/18 06:48:32;;;;;;;13.00;9.50;;;5.50;87.00;;;;;;4906515;29;20520;-41
2021/11/18 06:51:26;;;;;;;12.23;8.33;;;5.40;87.00;;;;;;4907627;29;20453;-41
2021/11/18 06:53:56;;;;;;;13.03;9.67;;;5.40;87.10;;;;;;4898767;29;20473;-42
2021/11/18 06:56:24;;;;;;;12.37;9.30;;;5.40;87.30;;;;;;4906506;29;20485;-41
2021/11/18 06:58:51;;;;;;;13.77;9.53;;;5.40;87.40;;;;;;4891632;29;20836;-41
2021/11/18 07:01:19;;;;;;;14.50;8.93;;;5.40;87.20;;;;;;4895205;29;20511;-42
2021/11/18 07:03:47;;;;;;;17.17;10.00;;;5.40;87.20;;;;;;4901366;29;20473;-42
2021/11/18 07:06:17;;;;;;;16.93;9.77;;;5.40;87.30;;;;;;4903160;29;20486;-42
2021/11/18 07:08:44;;;;;;;12.87;8.67;;;5.40;87.60;;;;;;4887190;29;20870;-42
2021/11/18 07:11:13;;;;;;;15.10;9.03;;;5.40;87.60;;;;;;4901544;29;20824;-42
2021/11/18 07:13:40;;;;;;;12.60;8.73;;;5.40;87.50;;;;;;4872648;29;20494;-41
2021/11/18 07:16:12;;;;;;;15.77;9.37;;;5.40;87.50;;;;;;4904774;29;20964;-42
2021/11/18 07:18:40;;;;;;;14.43;9.40;;;5.40;87.50;;;;;;4906600;29;20478;-41
2021/11/18 07:21:07;;;;;;;16.67;10.10;;;5.40;87.50;;;;;;4901187;29;20464;-43
2021/11/18 07:23:35;;;;;;;15.40;9.17;;;5.40;87.60;;;;;;4884500;29;20476;-42
2021/11/18 07:26:04;;;;;;;14.23;9.40;;;5.40;87.70;;;;;;4905002;29;20468;-42
2021/11/18 07:28:33;;;;;;;15.90;10.17;;;5.40;88.20;;;;;;4903509;29;21060;-41
2021/11/18 07:31:01;;;;;;;19.33;11.27;;;5.50;88.10;;;;;;4898629;29;21020;-41
2021/11/18 07:33:30;;;;;;;13.77;9.43;;;5.40;88.20;;;;;;4887876;29;20469;-42
2021/11/18 07:35:57;;;;;;;16.77;10.60;;;5.50;88.40;;;;;;4904263;29;20535;-42
2021/11/18 07:38:28;;;;;;;16.67;11.20;;;5.50;88.30;;;;;;4904614;29;20464;-42
2021/11/18 07:40:56;;;;;;;15.73;10.50;;;5.50;88.00;;;;;;4902403;29;20477;-42
2021/11/18 07:43:27;;;;;;;16.60;12.03;;;5.50;88.10;;;;;;4896870;29;20468;-42
2021/11/18 07:46:13;;;;;;;18.77;10.80;;;5.50;88.10;;;;;;4903106;29;20456;-42
2021/11/18 07:48:42;;;;;;;12.57;8.83;;;5.50;88.30;;;;;;4887632;29;20492;-41
2021/11/18 07:51:10;;;;;;;15.60;9.90;;;5.50;88.30;;;;;;4899706;29;20465;-41
2021/11/18 07:53:38;;;;;;;14.17;9.40;;;5.60;88.40;;;;;;4906871;29;20468;-42
2021/11/18 07:56:05;;;;;;;13.57;9.17;;;5.60;88.40;;;;;;4902092;29;20488;-42
2021/11/18 07:58:33;;;;;;;15.00;9.60;;;5.60;88.30;;;;;;4886392;29;20469;-41
2021/11/18 08:01:00;;;;;;;15.00;8.90;;;5.60;88.40;;;;;;4904875;29;20477;-41
2021/11/18 08:03:31;;;;;;;17.83;10.37;;;5.70;88.50;;;;;;4910531;29;20457;-41
2021/11/18 08:06:00;;;;;;;18.73;10.47;;;5.70;88.60;;;;;;4906824;29;20470;-41
2021/11/18 08:08:27;;;;;;;14.67;11.00;;;5.70;88.70;;;;;;4886266;29;20502;-41
2021/11/18 08:10:55;;;;;;;18.87;11.83;;;5.70;88.80;;;;;;4909343;29;20464;-41
2021/11/18 08:13:22;;;;;;;20.63;12.17;;;5.80;89.00;;;;;;4908052;29;20961;-41
2021/11/18 08:15:49;;;;;;;23.30;12.70;;;5.80;88.80;;;;;;4901185;29;20790;-41
2021/11/18 08:18:16;;;;;;;21.97;11.87;;;5.90;89.00;;;;;;4904931;29;20473;-41
2021/11/18 08:20:43;;;;;;;16.20;11.20;;;5.90;89.20;;;;;;4906742;29;20499;-41
2021/11/18 08:23:10;;;;;;;20.70;11.10;;;5.90;89.30;;;;;;4907416;29;20477;-41
2021/11/18 08:25:37;;;;;;;17.17;11.80;;;6.00;89.50;;;;;;4909380;29;21417;-41
2021/11/18 08:28:04;;;;;;;21.03;11.03;;;6.10;89.60;;;;;;4908527;29;20493;-41
2021/11/18 08:30:33;;;;;;;18.10;11.87;;;6.10;89.70;;;;;;4909508;29;20543;-41
2021/11/18 08:33:03;;;;;;;21.30;11.93;;;6.20;89.80;;;;;;4905323;29;20458;-41
2021/11/18 08:35:33;;;;;;;21.13;11.90;;;6.30;89.70;;;;;;4908709;29;20453;-41
2021/11/18 08:38:03;;;;;;;21.03;11.40;;;6.30;89.80;;;;;;4910254;29;20469;-41
2021/11/18 08:40:31;;;;;;;23.33;10.70;;;6.40;89.80;;;;;;4908453;29;20461;-41
2021/11/18 08:42:57;;;;;;;18.93;11.70;;;6.40;89.80;;;;;;4909445;29;20457;-41
2021/11/18 08:45:25;;;;;;;21.07;11.43;;;6.50;89.80;;;;;;4907572;29;20476;-41
2021/11/18 08:47:52;;;;;;;21.77;12.20;;;6.50;89.80;;;;;;4908187;29;20492;-41
2021/11/18 08:50:23;;;;;;;19.20;11.50;;;6.60;89.80;;;;;;4907173;29;20467;-41
2021/11/18 08:52:50;;;;;;;29.40;13.30;;;6.60;89.80;;;;;;4907601;29;20461;-41
2021/11/18 08:55:25;;;;;;;21.37;11.40;;;6.70;89.80;;;;;;4908356;29;20476;-41
2021/11/18 08:57:52;;;;;;;15.80;11.20;;;6.80;89.80;;;;;;4909668;29;20806;-41
2021/11/18 09:00:26;;;;;;;18.30;10.63;;;6.80;89.80;;;;;;4906317;29;20454;-41
2021/11/18 09:02:54;;;;;;;25.53;12.43;;;6.80;89.80;;;;;;4890139;29;20556;-41
2021/11/18 09:05:22;;;;;;;19.47;12.70;;;6.90;89.80;;;;;;4907344;29;20636;-41
2021/11/18 09:07:49;;;;;;;19.90;13.00;;;6.90;89.80;;;;;;4909273;29;20511;-41
2021/11/18 09:10:16;;;;;;;22.73;13.60;;;7.00;89.80;;;;;;4907859;29;20468;-41
2021/11/18 09:12:44;;;;;;;21.13;11.57;;;7.10;89.80;;;;;;4906779;29;20457;-41
2021/11/18 09:15:14;;;;;;;18.67;13.43;;;7.10;89.80;;;;;;4910807;29;20460;-41
2021/11/18 09:17:41;;;;;;;19.20;12.67;;;7.20;89.80;;;;;;4912736;29;20884;-41
2021/11/18 09:20:11;;;;;;;20.93;11.87;;;7.30;89.80;;;;;;4912745;29;20851;-42
2021/11/18 09:22:38;;;;;;;19.90;13.63;;;7.40;89.80;;;;;;4913519;29;20836;-42
2021/11/18 09:25:09;;;;;;;23.27;13.57;;;7.50;89.70;;;;;;4913188;29;20456;-41
2021/11/18 09:27:47;;;;;;;24.57;12.20;;;7.50;89.70;;;;;;4911128;29;20457;-41
2021/11/18 09:30:37;;;;;;;17.27;12.03;;;7.70;89.50;;;;;;4910705;29;20464;-41
2021/11/18 09:33:06;;;;;;;19.53;11.70;;;7.80;89.40;;;;;;4911417;29;20469;-41
2021/11/18 09:36:00;;;;;;;22.90;12.50;;;7.90;89.00;;;;;;4912171;29;20559;-41
2021/11/18 09:38:30;;;;;;;17.80;11.47;;;8.10;88.80;;;;;;4911603;29;20480;-41
2021/11/18 09:41:22;;;;;;;20.87;12.53;;;8.20;88.60;;;;;;4910551;29;20972;-41
2021/11/18 09:44:04;;;;;;;18.90;10.27;;;8.30;88.60;;;;;;4911591;29;20471;-41
2021/11/18 09:46:53;;;;;;;20.17;11.37;;;8.50;88.50;;;;;;4909896;29;20718;-41
2021/11/18 09:49:45;;;;;;;24.90;11.57;;;8.60;88.30;;;;;;4912749;29;21003;-41
2021/11/18 09:52:47;;;;;;;17.80;11.03;;;8.60;87.90;;;;;;4911449;29;20460;-41
2021/11/18 09:55:22;;;;;;;14.83;10.03;;;8.70;87.20;;;;;;4896600;29;20833;-41
2021/11/18 09:58:27;;;;;;;17.60;9.40;;;8.80;86.80;;;;;;4896593;29;20503;-41
2021/11/18 10:01:09;;;;;;;18.83;10.63;;;8.90;85.60;;;;;;4908349;29;20467;-41
2021/11/18 10:03:51;;;;;;;20.03;9.90;;;9.00;85.10;;;;;;4912860;29;20964;-41
2021/11/18 10:06:34;;;;;;;16.47;9.73;;;9.00;84.70;;;;;;4912929;29;20455;-41
2021/11/18 10:09:43;;;;;;;16.20;9.80;;;9.10;84.40;;;;;;4911384;29;20499;-41
2021/11/18 10:12:39;;;;;;;16.23;10.70;;;9.10;84.10;;;;;;4903423;29;20992;-42
2021/11/18 10:15:11;;;;;;;17.30;9.00;;;9.20;84.50;;;;;;4912192;29;20460;-41
2021/11/18 10:17:42;;;;;;;15.73;8.30;;;9.30;84.00;;;;;;4906988;29;20490;-42
2021/11/18 10:20:23;;;;;;;14.93;9.87;;;9.30;83.00;;;;;;4908873;29;20559;-42
2021/11/18 10:22:58;;;;;;;18.87;9.37;;;9.40;82.50;;;;;;4909525;29;20547;-42
2021/11/18 10:25:33;;;;;;;16.10;7.67;;;9.40;82.90;;;;;;4909765;29;20476;-42
2021/11/18 10:28:23;;;;;;;13.30;8.30;;;9.40;82.20;;;;;;4910971;29;20819;-42
2021/11/18 10:31:10;;;;;;;14.27;7.90;;;9.50;82.10;;;;;;4909076;29;20493;-42
2021/11/18 10:33:43;;;;;;;17.57;8.40;;;9.50;81.80;;;;;;4911052;29;20457;-42
2021/11/18 10:36:18;;;;;;;10.80;7.63;;;9.50;82.50;;;;;;4894049;29;20576;-42
2021/11/18 10:39:01;;;;;;;12.80;9.67;;;9.60;82.50;;;;;;4907331;29;20464;-42
2021/11/18 10:41:30;;;;;;;16.23;9.00;;;9.60;81.90;;;;;;4910178;29;21063;-42
2021/11/18 10:44:10;;;;;;;15.00;8.87;;;9.70;81.50;;;;;;4911436;29;20541;-42
2021/11/18 10:46:41;;;;;;;13.63;8.43;;;9.70;81.30;;;;;;4912586;29;21017;-42
2021/11/18 10:49:12;;;;;;;12.37;8.00;;;9.60;81.00;;;;;;4909483;29;20492;-42
2021/11/18 10:51:56;;;;;;;10.73;7.83;;;9.70;80.50;;;;;;4907076;29;20468;-42
2021/11/18 10:54:43;;;;;;;16.03;6.90;;;9.70;80.80;;;;;;4909815;29;20551;-42
2021/11/18 10:57:30;;;;;;;18.93;8.23;;;9.70;80.50;;;;;;4909398;29;20556;-42
2021/11/18 11:00:16;;;;;;;11.07;6.60;;;9.70;80.60;;;;;;4909639;29;20508;-42
2021/11/18 11:02:51;;;;;;;12.60;8.47;;;9.70;80.50;;;;;;4908036;29;20868;-42
2021/11/18 11:05:36;;;;;;;13.43;8.00;;;9.70;80.70;;;;;;4912178;29;20678;-42
2021/11/18 11:08:23;;;;;;;16.10;8.60;;;9.70;80.50;;;;;;4911437;29;20471;-42
2021/11/18 11:11:27;;;;;;;13.03;6.97;;;9.70;80.70;;;;;;4911711;29;21091;-42
2021/11/18 11:14:26;;;;;;;15.80;6.80;;;9.80;80.50;;;;;;4913399;29;20445;-42
2021/11/18 11:17:26;;;;;;;10.63;7.30;;;9.80;80.10;;;;;;4910513;29;20967;-42
2021/11/18 11:19:53;;;;;;;13.17;7.10;;;9.90;80.70;;;;;;4912927;29;20464;-42
2021/11/18 11:22:57;;;;;;;10.07;5.87;;;9.90;80.80;;;;;;4893541;29;20472;-42
2021/11/18 11:25:33;;;;;;;11.97;6.17;;;10.00;80.60;;;;;;4905493;29;21115;-42
2021/11/18 11:28:03;;;;;;;12.33;7.70;;;10.20;79.90;;;;;;4911752;29;20841;-42
2021/11/18 11:30:43;;;;;;;15.77;6.90;;;10.30;79.30;;;;;;4909635;29;20991;-42
2021/11/18 11:33:42;;;;;;;11.20;7.27;;;10.40;78.20;;;;;;4895177;29;21357;-42
2021/11/18 11:36:22;;;;;;;15.30;7.97;;;10.30;77.70;;;;;;4884298;29;20456;-42
2021/11/18 11:39:07;;;;;;;12.23;7.03;;;10.30;78.20;;;;;;4909869;29;20900;-42
2021/11/18 11:41:49;;;;;;;11.13;7.63;;;10.30;78.10;;;;;;4912189;29;20460;-42
2021/11/18 11:44:38;;;;;;;15.10;7.80;;;10.40;78.30;;;;;;4908333;29;20460;-41
2021/11/18 11:47:14;;;;;;;18.13;8.53;;;10.40;78.40;;;;;;4907654;29;20484;-41
2021/11/18 11:49:52;;;;;;;13.10;8.20;;;10.40;78.30;;;;;;4906411;29;20586;-41
2021/11/18 11:52:36;;;;;;;14.00;10.00;;;10.40;78.40;;;;;;4893576;29;20472;-41
2021/11/18 11:55:08;;;;;;;12.40;7.87;;;10.50;77.40;;;;;;4911688;29;20983;-41
2021/11/18 11:57:56;;;;;;;11.63;6.80;;;10.50;76.80;;;;;;4909913;29;20729;-41
2021/11/18 12:00:42;;;;;;;8.57;7.53;;;10.50;76.70;;;;;;4910882;29;20831;-41
2021/11/18 12:03:31;;;;;;;14.53;6.77;;;10.50;76.80;;;;;;4895918;29;20532;-41
2021/11/18 12:06:11;;;;;;;8.33;6.33;;;10.50;77.30;;;;;;4911559;29;20832;-41
2021/11/18 12:09:02;;;;;;;8.10;6.40;;;10.40;77.50;;;;;;4908938;29;20504;-41
2021/11/18 12:11:47;;;;;;;11.30;6.47;;;10.40;78.00;;;;;;4910516;29;20818;-42
2021/11/18 12:14:38;;;;;;;11.73;6.60;;;10.40;78.60;;;;;;4911219;29;20464;-41
2021/11/18 12:17:10;;;;;;;12.63;7.60;;;10.40;78.20;;;;;;4910610;29;20848;-42
2021/11/18 12:19:48;;;;;;;13.50;6.47;;;10.40;78.10;;;;;;4907986;29;20853;-42
2021/11/18 12:22:33;;;;;;;9.50;5.70;;;10.40;77.70;;;;;;4910273;29;21680;-42
2021/11/18 12:25:22;;;;;;;9.70;6.70;;;10.40;77.90;;;;;;4905697;29;20824;-42
2021/11/18 12:27:58;;;;;;;11.70;6.73;;;10.40;78.10;;;;;;4905718;29;20469;-42
2021/11/18 12:30:28;;;;;;;9.40;5.97;;;10.50;77.70;;;;;;4905605;29;20496;-42
2021/11/18 12:32:59;;;;;;;8.87;6.23;;;10.40;78.00;;;;;;4909035;29;20834;-42
2021/11/18 12:35:28;;;;;;;13.40;5.83;;;10.50;78.20;;;;;;4894557;29;20508;-42
2021/11/18 12:38:28;;;;;;;6.50;4.80;;;10.40;77.80;;;;;;4908837;29;20460;-42
2021/11/18 12:41:26;;;;;;;13.23;7.30;;;10.40;77.90;;;;;;4909766;29;20987;-42
2021/11/18 12:44:11;;;;;;;9.23;5.77;;;10.40;78.20;;;;;;4911577;29;20828;-42
2021/11/18 12:47:03;;;;;;;6.07;4.17;;;10.50;78.00;;;;;;4909332;29;20468;-42
2021/11/18 12:49:50;;;;;;;13.03;4.83;;;10.50;78.10;;;;;;4911765;29;20491;-42
2021/11/18 12:52:22;;;;;;;11.47;4.80;;;10.60;77.40;;;;;;4903570;29;20542;-42
2021/11/18 12:55:14;;;;;;;7.67;4.97;;;10.70;76.90;;;;;;4906190;29;20553;-42
2021/11/18 12:58:05;;;;;;;6.90;4.53;;;10.70;77.00;;;;;;4907345;29;20475;-42
2021/11/18 13:00:40;;;;;;;11.47;5.33;;;10.80;76.50;;;;;;4909959;29;20467;-42
2021/11/18 13:03:09;;;;;;;8.90;4.90;;;10.90;76.00;;;;;;4900276;29;20464;-42
2021/11/18 13:05:47;;;;;;;8.57;5.80;;;10.90;76.20;;;;;;4909891;29;20467;-42
2021/11/18 13:08:49;;;;;;;12.10;6.50;;;10.90;76.20;;;;;;4921787;29;20469;-42
2021/11/18 13:11:25;;;;;;;11.63;6.07;;;11.00;76.00;;;;;;4908700;29;20460;-42